createdAt,value
2023-05-22T00:02:22.413Z,1.60
2023-05-22T00:07:23.064Z,1.62
2023-05-22T00:09:53.785Z,1.87
2023-05-22T00:12:23.964Z,1.37
2023-05-22T00:14:53.825Z,1.30
2023-05-22T00:17:25.011Z,1.60
2023-05-22T00:19:55.188Z,1.50
2023-05-22T00:22:24.954Z,1.20
2023-05-22T00:24:55.191Z,1.97
2023-05-22T00:27:25.068Z,1.50
2023-05-22T00:29:54.922Z,1.40
2023-05-22T00:32:25.262Z,1.90
2023-05-22T00:34:55.313Z,1.40
2023-05-22T00:37:25.566Z,1.40
2023-05-22T00:39:55.820Z,1.15
2023-05-22T00:42:25.777Z,1.60
2023-05-22T00:44:55.996Z,1.95
2023-05-22T00:47:27.204Z,1.67
2023-05-22T00:49:57.456Z,1.40
2023-05-22T00:52:27.545Z,1.43
2023-05-22T00:54:57.393Z,1.30
2023-05-22T00:57:28.085Z,1.50
2023-05-22T00:59:58.680Z,1.30
2023-05-22T01:02:31.855Z,1.45
2023-05-22T01:05:03.701Z,1.50
2023-05-22T01:07:35.820Z,1.60
2023-05-22T01:10:07.466Z,1.50
2023-05-22T01:12:46.379Z,2.02
2023-05-22T01:15:41.166Z,2.30
2023-05-22T01:18:29.388Z,1.50
2023-05-22T01:21:21.288Z,1.82
2023-05-22T01:24:30.441Z,1.70
2023-05-22T01:27:12.300Z,1.50
2023-05-22T01:30:08.279Z,1.67
2023-05-22T01:32:39.064Z,1.77
2023-05-22T01:35:12.300Z,1.82
2023-05-22T01:37:43.529Z,2.03
2023-05-22T01:40:14.480Z,1.42
2023-05-22T01:45:13.031Z,1.62
2023-05-22T01:47:42.947Z,1.50
2023-05-22T01:50:13.994Z,1.37
2023-05-22T01:53:11.591Z,1.20
2023-05-22T01:56:14.500Z,1.40
2023-05-22T01:58:48.235Z,1.43
2023-05-22T02:01:20.791Z,1.70
2023-05-22T02:03:55.887Z,1.30
2023-05-22T02:06:32.522Z,1.20
2023-05-22T02:09:03.885Z,1.67
2023-05-22T02:14:04.914Z,1.95
2023-05-22T02:16:35.608Z,1.70
2023-05-22T02:19:06.763Z,1.80
2023-05-22T02:21:37.305Z,1.12
2023-05-22T02:24:07.376Z,1.40
2023-05-22T02:26:37.720Z,1.67
2023-05-22T02:29:07.428Z,1.40
2023-05-22T02:31:38.033Z,1.15
2023-05-22T02:34:07.629Z,1.67
2023-05-22T02:36:38.789Z,1.60
2023-05-22T02:41:39.021Z,1.30
2023-05-22T02:44:08.669Z,1.80
2023-05-22T02:46:38.611Z,1.60
2023-05-22T02:49:08.227Z,1.30
2023-05-22T02:51:38.144Z,1.50
2023-05-22T02:54:07.733Z,1.67
2023-05-22T02:56:37.577Z,1.83
2023-05-22T02:59:07.172Z,1.00
2023-05-22T03:01:39.005Z,1.50
2023-05-22T03:04:09.121Z,1.30
2023-05-22T03:06:40.082Z,1.50
2023-05-22T03:09:10.690Z,1.30
2023-05-22T03:11:40.921Z,1.42
2023-05-22T03:14:11.207Z,1.50
2023-05-22T03:16:41.768Z,1.47
2023-05-22T03:19:18.360Z,1.33
2023-05-22T03:21:50.172Z,2.27
2023-05-22T03:24:20.097Z,1.32
2023-05-22T03:26:50.162Z,1.77
2023-05-22T03:29:21.890Z,1.60
2023-05-22T03:31:51.711Z,1.50
2023-05-22T03:34:23.114Z,1.60
2023-05-22T03:36:53.007Z,1.37
2023-05-22T03:39:23.228Z,2.35
2023-05-22T03:41:54.816Z,1.40
2023-05-22T03:44:25.899Z,1.10
2023-05-22T03:46:56.196Z,1.83
2023-05-22T03:49:26.054Z,1.37
2023-05-22T03:51:55.800Z,1.60
2023-05-22T03:54:25.998Z,1.50
2023-05-22T03:56:56.055Z,1.17
2023-05-22T03:59:25.990Z,1.40
2023-05-22T04:01:58.268Z,1.60
2023-05-22T04:04:30.443Z,1.83
2023-05-22T04:07:02.240Z,1.03
2023-05-22T04:09:34.472Z,1.20
2023-05-22T04:12:04.821Z,1.57
2023-05-22T04:14:34.770Z,1.93
2023-05-22T04:17:06.376Z,1.60
2023-05-22T04:19:36.279Z,1.50
2023-05-22T04:22:06.791Z,1.77
2023-05-22T04:24:38.095Z,1.77
2023-05-22T04:27:08.231Z,1.83
2023-05-22T04:29:38.018Z,1.43
2023-05-22T04:32:09.780Z,1.83
2023-05-22T04:34:39.643Z,1.43
2023-05-22T04:37:10.161Z,1.37
2023-05-22T04:39:40.288Z,1.95
2023-05-22T04:42:10.098Z,2.40
2023-05-22T04:44:39.932Z,1.53
2023-05-22T04:47:14.497Z,1.50
2023-05-22T04:49:45.717Z,1.90
2023-05-22T04:52:15.554Z,1.40
2023-05-22T04:54:46.676Z,1.60
2023-05-22T04:57:17.200Z,1.40
2023-05-22T05:02:16.786Z,1.50
2023-05-22T05:04:47.030Z,1.60
2023-05-22T05:07:18.646Z,1.45
2023-05-22T05:09:48.552Z,1.40
2023-05-22T05:12:18.446Z,1.50
2023-05-22T05:14:49.185Z,1.47
2023-05-22T05:17:18.914Z,1.50
2023-05-22T05:19:48.815Z,1.27
2023-05-22T05:22:18.697Z,0.90
2023-05-22T05:24:48.716Z,0.90
2023-05-22T05:27:18.993Z,1.10
2023-05-22T05:29:48.835Z,1.43
2023-05-22T05:32:20.362Z,1.10
2023-05-22T05:34:57.725Z,1.67
2023-05-22T05:37:29.164Z,1.35
2023-05-22T05:40:01.265Z,0.95
2023-05-22T05:42:31.804Z,1.50
2023-05-22T05:45:02.984Z,0.98
2023-05-22T05:47:34.859Z,1.10
2023-05-22T05:50:05.109Z,1.82
2023-05-22T05:52:35.986Z,1.98
2023-05-22T05:55:07.504Z,1.15
2023-05-22T05:57:37.501Z,1.17
2023-05-22T06:00:11.659Z,0.90
2023-05-22T06:02:43.831Z,1.57
2023-05-22T06:05:21.140Z,1.10
2023-05-22T06:07:52.760Z,1.27
2023-05-22T06:10:22.705Z,1.10
2023-05-22T06:12:54.266Z,1.00
2023-05-22T06:15:23.886Z,0.97
2023-05-22T06:17:54.337Z,1.40
2023-05-22T06:20:25.201Z,1.40
2023-05-22T06:22:55.218Z,1.52
2023-05-22T06:25:26.134Z,1.00
2023-05-22T06:27:55.790Z,1.35
2023-05-22T06:30:39.068Z,1.40
2023-05-22T06:32:58.734Z,1.00
2023-05-22T06:35:28.690Z,1.00
2023-05-22T06:37:59.000Z,1.20
2023-05-22T06:40:29.385Z,0.93
2023-05-22T06:43:00.996Z,0.90
2023-05-22T06:45:50.832Z,1.30
2023-05-22T06:48:28.138Z,1.13
2023-05-22T06:50:59.687Z,1.13
2023-05-22T06:53:29.576Z,1.47
2023-05-22T06:55:59.779Z,1.13
2023-05-22T06:58:31.343Z,1.60
2023-05-22T07:01:02.241Z,0.90
2023-05-22T07:03:34.040Z,1.03
2023-05-22T07:06:12.392Z,0.80
2023-05-22T07:11:11.488Z,0.90
2023-05-22T07:13:42.209Z,1.12
2023-05-22T07:16:12.558Z,1.07
2023-05-22T07:18:42.219Z,1.10
2023-05-22T07:21:12.846Z,1.23
2023-05-22T07:23:44.190Z,1.10
2023-05-22T07:26:13.906Z,1.60
2023-05-22T07:28:45.759Z,1.20
2023-05-22T07:31:16.381Z,0.90
2023-05-22T07:36:17.418Z,1.05
2023-05-22T07:38:47.423Z,1.15
2023-05-22T07:41:17.277Z,1.03
2023-05-22T07:43:47.268Z,0.63
2023-05-22T07:46:18.880Z,1.07
2023-05-22T07:48:59.585Z,1.15
2023-05-22T07:51:29.717Z,1.10
2023-05-22T07:56:29.576Z,1.03
2023-05-22T07:59:01.011Z,1.20
2023-05-22T08:01:30.862Z,1.40
2023-05-22T08:04:01.032Z,1.07
2023-05-22T08:06:30.946Z,1.80
2023-05-22T08:09:00.750Z,1.17
2023-05-22T08:11:30.881Z,0.90
2023-05-22T08:14:00.884Z,1.27
2023-05-22T08:16:32.008Z,1.45
2023-05-22T08:19:01.937Z,1.25
2023-05-22T08:21:33.612Z,1.07
2023-05-22T08:24:03.543Z,0.80
2023-05-22T08:26:33.896Z,0.90
2023-05-22T08:29:04.076Z,0.85
2023-05-22T08:31:34.432Z,1.03
2023-05-22T08:36:34.502Z,1.02
2023-05-22T08:39:04.258Z,1.27
2023-05-22T08:41:33.917Z,0.80
2023-05-22T08:44:03.490Z,0.80
2023-05-22T08:46:36.043Z,0.90
2023-05-22T08:49:06.633Z,1.45
2023-05-22T08:51:42.397Z,1.20
2023-05-22T08:54:12.215Z,0.97
2023-05-22T08:56:53.017Z,1.20
2023-05-22T08:59:13.411Z,1.13
2023-05-22T09:01:43.583Z,0.90
2023-05-22T09:04:14.566Z,0.80
2023-05-22T09:06:46.016Z,0.70
2023-05-22T09:09:15.654Z,0.80
2023-05-22T09:11:45.769Z,0.97
2023-05-22T09:14:16.309Z,0.88
2023-05-22T09:16:50.739Z,0.93
2023-05-22T09:19:21.020Z,0.80
2023-05-22T09:21:51.283Z,0.80
2023-05-22T09:24:21.230Z,1.12
2023-05-22T09:26:52.513Z,0.90
2023-05-22T09:29:22.493Z,0.83
2023-05-22T09:31:52.334Z,1.00
2023-05-22T09:34:22.551Z,0.70
2023-05-22T09:36:53.888Z,1.20
2023-05-22T09:39:23.964Z,0.70
2023-05-22T09:41:54.064Z,0.60
2023-05-22T09:44:26.946Z,0.60
2023-05-22T09:46:56.666Z,0.75
2023-05-22T09:49:26.819Z,0.68
2023-05-22T09:51:57.207Z,0.60
2023-05-22T09:54:28.113Z,1.40
2023-05-22T09:59:32.665Z,0.70
2023-05-22T10:02:03.411Z,0.93
2023-05-22T10:04:35.024Z,0.70
2023-05-22T10:07:07.159Z,0.57
2023-05-22T10:09:40.671Z,1.17
2023-05-22T10:12:14.949Z,0.70
2023-05-22T10:14:45.693Z,0.70
2023-05-22T10:17:17.389Z,1.00
2023-05-22T10:19:48.845Z,0.63
2023-05-22T10:22:20.577Z,0.60
2023-05-22T10:24:52.282Z,0.77
2023-05-22T10:27:21.836Z,0.80
2023-05-22T10:30:17.526Z,0.90
2023-05-22T10:33:08.638Z,1.20
2023-05-22T10:35:41.913Z,0.80
2023-05-22T10:38:49.167Z,0.50
2023-05-22T10:41:19.610Z,0.67
2023-05-22T10:43:52.865Z,0.68
2023-05-22T10:46:22.866Z,0.83
2023-05-22T10:48:55.324Z,0.80
2023-05-22T10:51:25.818Z,0.97
2023-05-22T10:54:05.734Z,0.70
2023-05-22T10:56:36.930Z,1.00
2023-05-22T10:59:08.808Z,0.93
2023-05-22T11:01:39.676Z,0.70
2023-05-22T11:04:15.344Z,0.97
2023-05-22T11:06:49.700Z,0.80
2023-05-22T11:09:34.453Z,1.12
2023-05-22T11:12:28.781Z,0.83
2023-05-22T11:15:02.323Z,1.00
2023-05-22T11:17:33.811Z,0.60
2023-05-22T11:20:10.275Z,1.17
2023-05-22T11:22:49.609Z,0.47
2023-05-22T11:25:20.982Z,0.60
2023-05-22T11:27:51.139Z,1.07
2023-05-22T11:30:21.958Z,0.70
2023-05-22T11:32:51.845Z,0.67
2023-05-22T11:35:23.666Z,0.60
2023-05-22T11:37:54.473Z,0.65
2023-05-22T11:40:26.201Z,0.57
2023-05-22T11:42:56.879Z,0.90
2023-05-22T11:45:27.497Z,0.73
2023-05-22T11:47:57.581Z,0.77
2023-05-22T11:50:41.161Z,0.80
2023-05-22T11:52:59.761Z,0.80
2023-05-22T11:55:29.582Z,0.70
2023-05-22T11:58:01.039Z,1.17
2023-05-22T12:00:32.474Z,0.82
2023-05-22T12:03:02.263Z,0.62
2023-05-22T12:05:33.654Z,0.80
2023-05-22T12:08:03.871Z,0.90
2023-05-22T12:10:33.445Z,0.70
2023-05-22T12:13:03.386Z,0.57
2023-05-22T12:15:32.945Z,1.03
2023-05-22T12:18:02.846Z,0.57
2023-05-22T12:20:32.961Z,0.67
2023-05-22T12:23:02.782Z,1.13
2023-05-22T12:25:40.188Z,0.73
2023-05-22T12:28:09.753Z,0.60
2023-05-22T12:30:43.603Z,0.80
2023-05-22T12:33:16.397Z,0.77
2023-05-22T12:35:46.197Z,0.53
2023-05-22T12:38:16.070Z,0.53
2023-05-22T12:40:46.609Z,0.90
2023-05-22T12:43:16.464Z,0.90
2023-05-22T12:45:46.360Z,0.87
2023-05-22T12:48:16.535Z,1.03
2023-05-22T12:50:49.574Z,0.50
2023-05-22T12:53:19.641Z,0.70
2023-05-22T12:55:49.825Z,0.70
2023-05-22T12:58:19.666Z,0.63
2023-05-22T13:00:49.821Z,1.00
2023-05-22T13:03:19.451Z,1.10
2023-05-22T13:05:49.310Z,0.90
2023-05-22T13:08:19.325Z,0.50
2023-05-22T13:10:49.139Z,0.93
2023-05-22T13:13:18.817Z,0.93
2023-05-22T13:15:48.407Z,0.77
2023-05-22T13:18:18.121Z,0.77
2023-05-22T13:20:47.966Z,0.63
2023-05-22T13:23:17.518Z,0.90
2023-05-22T13:25:47.396Z,0.83
2023-05-22T13:28:17.243Z,0.98
2023-05-22T13:30:47.068Z,0.60
2023-05-22T13:33:16.821Z,0.70
2023-05-22T13:35:46.429Z,0.70
2023-05-22T13:38:16.433Z,0.83
2023-05-22T13:40:48.346Z,0.70
2023-05-22T13:43:17.542Z,0.80
2023-05-22T13:45:47.116Z,0.83
2023-05-22T13:48:17.250Z,1.30
2023-05-22T13:50:46.828Z,0.60
2023-05-22T13:53:16.370Z,0.70
2023-05-22T13:55:46.087Z,0.97
2023-05-22T13:58:15.625Z,0.90
2023-05-22T14:00:45.552Z,0.77
2023-05-22T14:03:17.144Z,0.82
2023-05-22T14:05:47.079Z,0.90
2023-05-22T14:08:16.675Z,1.07
2023-05-22T14:10:46.279Z,0.87
2023-05-22T14:13:15.838Z,0.77
2023-05-22T14:15:47.131Z,0.73
2023-05-22T14:18:17.419Z,0.70
2023-05-22T14:20:47.406Z,0.97
2023-05-22T14:23:17.029Z,0.90
2023-05-22T14:25:47.400Z,0.80
2023-05-22T14:28:17.413Z,0.90
2023-05-22T14:30:46.966Z,0.70
2023-05-22T14:33:16.588Z,0.80
2023-05-22T14:35:46.539Z,1.00
2023-05-22T14:38:16.458Z,0.67
2023-05-22T14:40:46.294Z,0.70
2023-05-22T14:43:16.071Z,0.70
2023-05-22T14:45:45.812Z,0.87
2023-05-22T14:48:15.699Z,0.93
2023-05-22T14:50:48.383Z,1.13
2023-05-22T14:53:18.231Z,0.70
2023-05-22T14:55:48.570Z,0.70
2023-05-22T14:58:18.553Z,0.78
2023-05-22T15:00:48.287Z,0.70
2023-05-22T15:03:19.110Z,0.70
2023-05-22T15:05:49.207Z,1.27
2023-05-22T15:08:20.808Z,0.63
2023-05-22T15:10:51.269Z,1.00
2023-05-22T15:13:21.485Z,0.80
2023-05-22T15:15:51.204Z,0.73
2023-05-22T15:18:20.853Z,0.80
2023-05-22T15:20:50.930Z,0.80
2023-05-22T15:23:22.385Z,1.30
2023-05-22T15:25:54.466Z,0.60
2023-05-22T15:28:24.134Z,0.70
2023-05-22T15:30:53.973Z,0.90
2023-05-22T15:33:23.745Z,0.90
2023-05-22T15:35:53.784Z,1.10
2023-05-22T15:38:23.367Z,0.90
2023-05-22T15:43:28.176Z,0.57
2023-05-22T15:48:26.536Z,0.42
2023-05-22T15:50:56.359Z,0.70
2023-05-22T15:53:27.232Z,0.77
2023-05-22T15:55:57.367Z,1.00
2023-05-22T15:58:28.702Z,0.80
2023-05-22T16:01:01.698Z,0.67
2023-05-22T16:03:31.506Z,0.80
2023-05-22T16:06:01.436Z,0.87
2023-05-22T16:08:31.289Z,0.57
2023-05-22T16:11:01.790Z,0.60
2023-05-22T16:13:31.492Z,0.60
2023-05-22T16:16:04.133Z,0.87
2023-05-22T16:18:34.113Z,0.90
2023-05-22T16:21:04.232Z,1.07
2023-05-22T16:23:33.906Z,1.10
2023-05-22T16:26:03.758Z,0.90
2023-05-22T16:28:33.915Z,0.70
2023-05-22T16:31:04.162Z,0.63
2023-05-22T16:33:35.453Z,0.97
2023-05-22T16:36:07.273Z,0.88
2023-05-22T16:38:37.154Z,0.70
2023-05-22T16:41:07.060Z,1.23
2023-05-22T16:43:38.775Z,0.87
2023-05-22T16:46:08.483Z,0.70
2023-05-22T16:48:38.343Z,1.17
2023-05-22T16:51:07.991Z,0.93
2023-05-22T16:53:38.569Z,0.40
2023-05-22T16:56:08.903Z,0.98
2023-05-22T16:58:39.790Z,1.00
2023-05-22T17:03:39.448Z,0.72
2023-05-22T17:06:09.666Z,1.10
2023-05-22T17:08:39.523Z,0.70
2023-05-22T17:11:09.507Z,0.77
2023-05-22T17:13:39.131Z,1.20
2023-05-22T17:16:09.026Z,1.17
2023-05-22T17:18:38.720Z,1.10
2023-05-22T17:21:10.254Z,0.80
2023-05-22T17:23:40.093Z,0.93
2023-05-22T17:26:09.931Z,0.57
2023-05-22T17:28:39.801Z,1.37
2023-05-22T17:31:09.972Z,0.57
2023-05-22T17:33:39.533Z,0.50
2023-05-22T17:36:09.109Z,0.63
2023-05-22T17:38:39.273Z,0.67
2023-05-22T17:41:08.841Z,1.00
2023-05-22T17:43:39.555Z,0.80
2023-05-22T17:46:09.597Z,0.95
2023-05-22T17:48:40.942Z,0.90
2023-05-22T17:51:11.607Z,0.95
2023-05-22T17:53:41.510Z,1.00
2023-05-22T17:56:11.232Z,0.83
2023-05-22T17:58:41.149Z,0.90
2023-05-22T18:01:11.514Z,0.80
2023-05-22T18:03:41.846Z,1.12
2023-05-22T18:06:11.553Z,1.23
2023-05-22T18:08:41.471Z,1.00
2023-05-22T18:11:11.101Z,1.00
2023-05-22T18:13:41.509Z,0.80
2023-05-22T18:16:11.176Z,1.00
2023-05-22T18:18:40.987Z,1.37
2023-05-22T18:21:11.041Z,0.97
2023-05-22T18:23:40.754Z,1.10
2023-05-22T18:26:10.597Z,1.10
2023-05-22T18:28:42.085Z,1.20
2023-05-22T18:31:12.066Z,0.93
2023-05-22T18:33:43.534Z,1.00
2023-05-22T18:36:13.954Z,1.10
2023-05-22T18:38:43.780Z,1.45
2023-05-22T18:41:13.336Z,1.27
2023-05-22T18:43:43.270Z,0.93
2023-05-22T18:46:12.881Z,0.83
2023-05-22T18:48:42.595Z,1.13
2023-05-22T18:51:13.326Z,1.00
2023-05-22T18:53:43.402Z,1.10
2023-05-22T18:56:13.086Z,1.20
2023-05-22T18:58:42.974Z,1.20
2023-05-22T19:01:12.585Z,1.20
2023-05-22T19:03:42.665Z,1.10
2023-05-22T19:06:12.818Z,1.40
2023-05-22T19:08:42.956Z,1.25
2023-05-22T19:11:12.850Z,1.13
2023-05-22T19:13:42.723Z,1.50
2023-05-22T19:16:14.071Z,1.20
2023-05-22T19:18:43.973Z,1.20
2023-05-22T19:21:13.697Z,0.77
2023-05-22T19:23:43.566Z,1.10
2023-05-22T19:26:13.538Z,1.30
2023-05-22T19:28:44.078Z,1.10
2023-05-22T19:31:13.643Z,1.50
2023-05-22T19:33:43.627Z,1.80
2023-05-22T19:36:13.453Z,1.75
2023-05-22T19:38:43.323Z,1.43
2023-05-22T19:41:13.193Z,1.30
2023-05-22T19:43:44.030Z,1.47
2023-05-22T19:46:13.917Z,1.55
2023-05-22T19:48:43.860Z,1.23
2023-05-22T19:51:13.658Z,1.27
2023-05-22T19:53:44.296Z,1.43
2023-05-22T19:56:14.195Z,1.17
2023-05-22T19:58:44.077Z,1.80
2023-05-22T20:01:13.972Z,1.25
2023-05-22T20:03:44.161Z,1.87
2023-05-22T20:06:14.283Z,0.97
2023-05-22T20:08:44.297Z,1.23
2023-05-22T20:11:13.848Z,1.40
2023-05-22T20:13:43.713Z,1.37
2023-05-22T20:16:13.298Z,1.33
2023-05-22T20:18:44.375Z,1.30
2023-05-22T20:21:14.213Z,1.02
2023-05-22T20:23:44.374Z,1.05
2023-05-22T20:26:14.781Z,1.43
2023-05-22T20:28:44.638Z,1.30
2023-05-22T20:31:14.694Z,1.05
2023-05-22T20:33:44.320Z,1.57
2023-05-22T20:36:15.814Z,1.15
2023-05-22T20:41:15.468Z,1.47
2023-05-22T20:43:46.403Z,1.40
2023-05-22T20:46:16.358Z,1.42
2023-05-22T20:48:47.837Z,1.33
2023-05-22T20:51:19.033Z,1.80
2023-05-22T20:53:51.373Z,1.13
2023-05-22T20:56:21.413Z,1.57
2023-05-22T20:58:51.251Z,1.70
2023-05-22T21:01:21.172Z,1.40
2023-05-22T21:03:51.715Z,1.57
2023-05-22T21:06:21.698Z,1.47
2023-05-22T21:08:54.147Z,2.03
2023-05-22T21:11:24.172Z,1.72
2023-05-22T21:13:53.952Z,1.30
2023-05-22T21:16:23.773Z,1.40
2023-05-22T21:18:53.713Z,1.10
2023-05-22T21:21:23.744Z,1.53
2023-05-22T21:23:53.665Z,1.93
2023-05-22T21:26:23.584Z,1.40
2023-05-22T21:28:53.613Z,1.70
2023-05-22T21:31:23.201Z,1.60
2023-05-22T21:33:53.100Z,1.67
2023-05-22T21:36:23.038Z,2.13
2023-05-22T21:38:53.156Z,2.30
2023-05-22T21:41:25.999Z,1.80
2023-05-22T21:44:14.889Z,1.73
2023-05-22T21:46:44.899Z,1.77
2023-05-22T21:49:14.867Z,2.30
2023-05-22T21:51:44.710Z,2.17
2023-05-22T21:54:14.600Z,1.47
2023-05-22T21:56:44.402Z,1.80
2023-05-22T21:59:14.483Z,1.85
2023-05-22T22:01:44.449Z,1.87
2023-05-22T22:04:14.503Z,1.80
2023-05-22T22:06:44.446Z,1.63
2023-05-22T22:09:14.170Z,1.70
2023-05-22T22:11:44.312Z,1.98
2023-05-22T22:14:14.478Z,2.40
2023-05-22T22:16:45.309Z,2.07
2023-05-22T22:19:15.834Z,1.60
2023-05-22T22:21:46.392Z,1.90
2023-05-22T22:24:16.090Z,1.97
2023-05-22T22:26:47.919Z,2.02
2023-05-22T22:29:17.934Z,2.70
2023-05-22T22:31:47.991Z,1.67
2023-05-22T22:34:17.754Z,2.03
2023-05-22T22:36:47.588Z,1.93
2023-05-22T22:39:17.171Z,2.67
2023-05-22T22:41:47.040Z,1.80
2023-05-22T22:44:16.820Z,1.97
2023-05-22T22:46:46.749Z,2.40
2023-05-22T22:49:16.486Z,2.00
2023-05-22T22:51:46.477Z,1.60
2023-05-22T22:54:17.476Z,2.20
2023-05-22T22:56:49.992Z,2.53
2023-05-22T22:59:19.854Z,1.70
2023-05-22T23:01:49.749Z,1.60
2023-05-22T23:04:19.911Z,2.42
2023-05-22T23:06:49.981Z,1.63
2023-05-22T23:09:20.308Z,2.00
2023-05-22T23:11:49.851Z,2.03
2023-05-22T23:14:20.383Z,2.27
2023-05-22T23:16:50.332Z,2.02
2023-05-22T23:19:20.233Z,2.02
2023-05-22T23:21:50.273Z,2.37
2023-05-22T23:24:19.913Z,1.87
2023-05-22T23:26:49.731Z,1.80
2023-05-22T23:29:19.320Z,1.93
2023-05-22T23:31:50.460Z,1.77
2023-05-22T23:34:20.618Z,2.20
2023-05-22T23:36:50.467Z,2.03
2023-05-22T23:39:20.109Z,1.70
2023-05-22T23:41:49.964Z,2.13
2023-05-22T23:44:19.509Z,1.90
2023-05-22T23:46:50.706Z,2.87
2023-05-22T23:49:21.480Z,2.03
2023-05-22T23:51:51.496Z,2.15
2023-05-22T23:54:21.139Z,2.60
2023-05-22T23:56:51.083Z,1.87
2023-05-22T23:59:21.172Z,1.85
